sensor_id;sensor_type;location;lat;lon;timestamp;P1;durP1;ratioP1;P2;durP2;ratioP2
10343;SDS011;5217;43.960;10.954;2022-10-16T00:01:38;7.40;;;4.43;;
10343;SDS011;5217;43.960;10.954;2022-10-16T00:04:07;7.57;;;4.57;;
10343;SDS011;5217;43.960;10.954;2022-10-16T00:06:37;5.72;;;4.22;;
10343;SDS011;5217;43.960;10.954;2022-10-16T00:09:06;4.13;;;3.72;;
10343;SDS011;5217;43.960;10.954;2022-10-16T00:11:35;4.72;;;3.72;;
10343;SDS011;5217;43.960;10.954;2022-10-16T00:14:06;5.82;;;4.07;;
10343;SDS011;5217;43.960;10.954;2022-10-16T00:16:38;5.65;;;4.13;;
10343;SDS011;5217;43.960;10.954;2022-10-16T00:19:06;5.50;;;4.78;;
10343;SDS011;5217;43.960;10.954;2022-10-16T00:21:36;5.03;;;4.05;;
10343;SDS011;5217;43.960;10.954;2022-10-16T00:24:05;5.57;;;3.92;;
10343;SDS011;5217;43.960;10.954;2022-10-16T00:26:35;4.38;;;3.97;;
10343;SDS011;5217;43.960;10.954;2022-10-16T00:29:05;5.50;;;4.10;;
10343;SDS011;5217;43.960;10.954;2022-10-16T00:31:34;4.78;;;3.90;;
10343;SDS011;5217;43.960;10.954;2022-10-16T00:34:04;5.13;;;3.70;;
10343;SDS011;5217;43.960;10.954;2022-10-16T00:36:32;6.30;;;4.10;;
10343;SDS011;5217;43.960;10.954;2022-10-16T00:39:01;7.55;;;4.57;;
10343;SDS011;5217;43.960;10.954;2022-10-16T00:41:30;4.93;;;3.95;;
10343;SDS011;5217;43.960;10.954;2022-10-16T00:43:59;6.28;;;3.88;;
10343;SDS011;5217;43.960;10.954;2022-10-16T00:46:29;5.30;;;3.67;;
10343;SDS011;5217;43.960;10.954;2022-10-16T00:49:04;4.25;;;3.50;;
10343;SDS011;5217;43.960;10.954;2022-10-16T00:51:36;6.63;;;3.53;;
10343;SDS011;5217;43.960;10.954;2022-10-16T00:54:07;4.57;;;3.47;;
10343;SDS011;5217;43.960;10.954;2022-10-16T00:56:40;4.93;;;3.50;;
10343;SDS011;5217;43.960;10.954;2022-10-16T00:59:10;4.72;;;3.80;;
10343;SDS011;5217;43.960;10.954;2022-10-16T01:01:42;4.32;;;3.70;;
10343;SDS011;5217;43.960;10.954;2022-10-16T01:04:12;4.75;;;3.70;;
10343;SDS011;5217;43.960;10.954;2022-10-16T01:06:43;4.70;;;3.60;;
10343;SDS011;5217;43.960;10.954;2022-10-16T01:09:20;4.88;;;3.30;;
10343;SDS011;5217;43.960;10.954;2022-10-16T01:11:54;3.95;;;3.22;;
10343;SDS011;5217;43.960;10.954;2022-10-16T01:14:32;5.13;;;3.63;;
10343;SDS011;5217;43.960;10.954;2022-10-16T01:17:09;5.35;;;3.47;;
10343;SDS011;5217;43.960;10.954;2022-10-16T01:19:48;4.63;;;3.40;;
10343;SDS011;5217;43.960;10.954;2022-10-16T01:22:32;4.35;;;3.40;;
10343;SDS011;5217;43.960;10.954;2022-10-16T01:25:09;5.28;;;3.80;;
10343;SDS011;5217;43.960;10.954;2022-10-16T01:27:45;5.40;;;3.70;;
10343;SDS011;5217;43.960;10.954;2022-10-16T01:30:16;3.72;;;3.30;;
10343;SDS011;5217;43.960;10.954;2022-10-16T01:32:49;5.72;;;3.42;;
10343;SDS011;5217;43.960;10.954;2022-10-16T01:35:21;3.97;;;3.42;;
10343;SDS011;5217;43.960;10.954;2022-10-16T01:37:53;3.92;;;3.40;;
10343;SDS011;5217;43.960;10.954;2022-10-16T01:40:28;5.50;;;3.40;;
10343;SDS011;5217;43.960;10.954;2022-10-16T01:43:02;4.05;;;2.90;;
10343;SDS011;5217;43.960;10.954;2022-10-16T01:45:35;6.78;;;3.40;;
10343;SDS011;5217;43.960;10.954;2022-10-16T01:48:04;5.53;;;3.80;;
10343;SDS011;5217;43.960;10.954;2022-10-16T01:50:37;4.40;;;3.70;;
10343;SDS011;5217;43.960;10.954;2022-10-16T01:53:09;5.65;;;3.90;;
10343;SDS011;5217;43.960;10.954;2022-10-16T01:55:41;7.63;;;4.50;;
10343;SDS011;5217;43.960;10.954;2022-10-16T01:58:13;6.78;;;4.70;;
10343;SDS011;5217;43.960;10.954;2022-10-16T02:00:43;6.03;;;4.80;;
10343;SDS011;5217;43.960;10.954;2022-10-16T02:03:14;6.90;;;4.40;;
10343;SDS011;5217;43.960;10.954;2022-10-16T02:05:45;4.60;;;4.13;;
10343;SDS011;5217;43.960;10.954;2022-10-16T02:08:17;4.80;;;3.47;;
10343;SDS011;5217;43.960;10.954;2022-10-16T02:10:46;6.15;;;3.45;;
10343;SDS011;5217;43.960;10.954;2022-10-16T02:13:17;5.43;;;3.20;;
10343;SDS011;5217;43.960;10.954;2022-10-16T02:15:51;4.47;;;3.40;;
10343;SDS011;5217;43.960;10.954;2022-10-16T02:18:19;6.70;;;4.10;;
10343;SDS011;5217;43.960;10.954;2022-10-16T02:20:48;4.40;;;3.83;;
10343;SDS011;5217;43.960;10.954;2022-10-16T02:23:22;6.30;;;3.65;;
10343;SDS011;5217;43.960;10.954;2022-10-16T02:26:07;4.85;;;3.63;;
10343;SDS011;5217;43.960;10.954;2022-10-16T02:28:42;4.15;;;3.75;;
10343;SDS011;5217;43.960;10.954;2022-10-16T02:31:22;4.07;;;3.47;;
10343;SDS011;5217;43.960;10.954;2022-10-16T02:33:55;6.28;;;3.53;;
10343;SDS011;5217;43.960;10.954;2022-10-16T02:36:26;3.63;;;3.20;;
10343;SDS011;5217;43.960;10.954;2022-10-16T02:38:54;3.83;;;3.40;;
10343;SDS011;5217;43.960;10.954;2022-10-16T02:41:23;4.72;;;3.55;;
10343;SDS011;5217;43.960;10.954;2022-10-16T02:43:53;5.68;;;3.50;;
10343;SDS011;5217;43.960;10.954;2022-10-16T02:46:22;3.67;;;3.38;;
10343;SDS011;5217;43.960;10.954;2022-10-16T02:48:50;4.45;;;3.33;;
10343;SDS011;5217;43.960;10.954;2022-10-16T02:51:19;5.53;;;3.65;;
10343;SDS011;5217;43.960;10.954;2022-10-16T02:53:47;6.57;;;3.25;;
10343;SDS011;5217;43.960;10.954;2022-10-16T02:56:15;3.90;;;3.42;;
10343;SDS011;5217;43.960;10.954;2022-10-16T02:58:49;5.60;;;3.30;;
10343;SDS011;5217;43.960;10.954;2022-10-16T03:01:18;4.93;;;3.28;;
10343;SDS011;5217;43.960;10.954;2022-10-16T03:03:47;3.50;;;3.20;;
10343;SDS011;5217;43.960;10.954;2022-10-16T03:06:15;3.30;;;3.00;;
10343;SDS011;5217;43.960;10.954;2022-10-16T03:08:44;4.32;;;3.35;;
10343;SDS011;5217;43.960;10.954;2022-10-16T03:11:12;4.38;;;3.30;;
10343;SDS011;5217;43.960;10.954;2022-10-16T03:13:41;4.93;;;3.33;;
10343;SDS011;5217;43.960;10.954;2022-10-16T03:16:10;3.75;;;3.30;;
10343;SDS011;5217;43.960;10.954;2022-10-16T03:18:40;5.25;;;3.55;;
10343;SDS011;5217;43.960;10.954;2022-10-16T03:21:08;5.97;;;3.60;;
10343;SDS011;5217;43.960;10.954;2022-10-16T03:23:37;4.07;;;3.38;;
10343;SDS011;5217;43.960;10.954;2022-10-16T03:26:05;4.05;;;3.65;;
10343;SDS011;5217;43.960;10.954;2022-10-16T03:28:33;3.83;;;3.40;;
10343;SDS011;5217;43.960;10.954;2022-10-16T03:31:02;4.10;;;3.67;;
10343;SDS011;5217;43.960;10.954;2022-10-16T03:33:30;4.13;;;3.72;;
10343;SDS011;5217;43.960;10.954;2022-10-16T03:36:00;5.53;;;3.72;;
10343;SDS011;5217;43.960;10.954;2022-10-16T03:38:28;6.50;;;3.55;;
10343;SDS011;5217;43.960;10.954;2022-10-16T03:40:57;3.70;;;3.38;;
10343;SDS011;5217;43.960;10.954;2022-10-16T03:43:25;5.07;;;3.28;;
10343;SDS011;5217;43.960;10.954;2022-10-16T03:45:53;3.95;;;3.05;;
10343;SDS011;5217;43.960;10.954;2022-10-16T03:48:22;4.20;;;3.70;;
10343;SDS011;5217;43.960;10.954;2022-10-16T03:50:50;4.18;;;3.10;;
10343;SDS011;5217;43.960;10.954;2022-10-16T03:53:20;4.57;;;3.10;;
10343;SDS011;5217;43.960;10.954;2022-10-16T03:55:49;5.72;;;3.90;;
10343;SDS011;5217;43.960;10.954;2022-10-16T03:58:17;3.90;;;3.50;;
10343;SDS011;5217;43.960;10.954;2022-10-16T04:00:46;5.78;;;4.00;;
10343;SDS011;5217;43.960;10.954;2022-10-16T04:03:15;5.03;;;3.75;;
10343;SDS011;5217;43.960;10.954;2022-10-16T04:05:45;4.50;;;3.78;;
10343;SDS011;5217;43.960;10.954;2022-10-16T04:08:13;4.43;;;3.53;;
10343;SDS011;5217;43.960;10.954;2022-10-16T04:10:43;5.32;;;3.85;;
10343;SDS011;5217;43.960;10.954;2022-10-16T04:13:12;4.82;;;3.40;;
10343;SDS011;5217;43.960;10.954;2022-10-16T04:15:41;4.82;;;3.42;;
10343;SDS011;5217;43.960;10.954;2022-10-16T04:18:09;6.75;;;3.80;;
10343;SDS011;5217;43.960;10.954;2022-10-16T04:20:37;5.95;;;3.63;;
10343;SDS011;5217;43.960;10.954;2022-10-16T04:23:06;3.95;;;3.50;;
10343;SDS011;5217;43.960;10.954;2022-10-16T04:25:34;4.65;;;3.50;;
10343;SDS011;5217;43.960;10.954;2022-10-16T04:28:04;5.22;;;3.67;;
10343;SDS011;5217;43.960;10.954;2022-10-16T04:30:32;5.13;;;3.72;;
10343;SDS011;5217;43.960;10.954;2022-10-16T04:33:01;5.10;;;3.92;;
10343;SDS011;5217;43.960;10.954;2022-10-16T04:35:29;4.80;;;4.07;;
10343;SDS011;5217;43.960;10.954;2022-10-16T04:37:58;4.35;;;3.60;;
10343;SDS011;5217;43.960;10.954;2022-10-16T04:40:26;4.15;;;3.70;;
10343;SDS011;5217;43.960;10.954;2022-10-16T04:42:54;4.30;;;3.58;;
10343;SDS011;5217;43.960;10.954;2022-10-16T04:45:24;5.22;;;3.33;;
10343;SDS011;5217;43.960;10.954;2022-10-16T04:47:53;4.07;;;3.63;;
10343;SDS011;5217;43.960;10.954;2022-10-16T04:50:24;8.52;;;4.00;;
10343;SDS011;5217;43.960;10.954;2022-10-16T04:52:53;5.57;;;3.90;;
10343;SDS011;5217;43.960;10.954;2022-10-16T04:55:21;5.25;;;3.70;;
10343;SDS011;5217;43.960;10.954;2022-10-16T04:57:50;5.80;;;3.88;;
10343;SDS011;5217;43.960;10.954;2022-10-16T05:00:18;5.28;;;3.95;;
10343;SDS011;5217;43.960;10.954;2022-10-16T05:02:49;5.73;;;4.17;;
10343;SDS011;5217;43.960;10.954;2022-10-16T05:05:17;5.30;;;4.20;;
10343;SDS011;5217;43.960;10.954;2022-10-16T05:07:46;6.93;;;3.65;;
10343;SDS011;5217;43.960;10.954;2022-10-16T05:10:16;4.85;;;3.75;;
10343;SDS011;5217;43.960;10.954;2022-10-16T05:12:44;3.75;;;3.38;;
10343;SDS011;5217;43.960;10.954;2022-10-16T05:15:13;6.50;;;3.33;;
10343;SDS011;5217;43.960;10.954;2022-10-16T05:17:42;3.47;;;3.08;;
10343;SDS011;5217;43.960;10.954;2022-10-16T05:20:11;3.92;;;3.53;;
10343;SDS011;5217;43.960;10.954;2022-10-16T05:22:40;5.07;;;3.50;;
10343;SDS011;5217;43.960;10.954;2022-10-16T05:25:09;5.10;;;3.33;;
10343;SDS011;5217;43.960;10.954;2022-10-16T05:27:37;4.05;;;3.53;;
10343;SDS011;5217;43.960;10.954;2022-10-16T05:30:06;3.75;;;3.35;;
10343;SDS011;5217;43.960;10.954;2022-10-16T05:32:37;3.80;;;3.33;;
10343;SDS011;5217;43.960;10.954;2022-10-16T05:35:06;4.20;;;3.72;;
10343;SDS011;5217;43.960;10.954;2022-10-16T05:37:39;5.47;;;3.95;;
10343;SDS011;5217;43.960;10.954;2022-10-16T05:40:08;4.13;;;3.60;;
10343;SDS011;5217;43.960;10.954;2022-10-16T05:42:37;3.97;;;3.30;;
10343;SDS011;5217;43.960;10.954;2022-10-16T05:45:06;3.75;;;3.42;;
10343;SDS011;5217;43.960;10.954;2022-10-16T05:47:36;4.43;;;3.40;;
10343;SDS011;5217;43.960;10.954;2022-10-16T05:50:05;4.20;;;3.27;;
10343;SDS011;5217;43.960;10.954;2022-10-16T05:52:34;3.70;;;3.30;;
10343;SDS011;5217;43.960;10.954;2022-10-16T05:55:04;4.53;;;3.37;;
10343;SDS011;5217;43.960;10.954;2022-10-16T05:57:33;4.23;;;3.20;;
10343;SDS011;5217;43.960;10.954;2022-10-16T06:00:01;3.42;;;3.13;;
10343;SDS011;5217;43.960;10.954;2022-10-16T06:02:30;3.47;;;3.17;;
10343;SDS011;5217;43.960;10.954;2022-10-16T06:04:58;4.07;;;3.23;;
10343;SDS011;5217;43.960;10.954;2022-10-16T06:07:27;4.80;;;3.42;;
10343;SDS011;5217;43.960;10.954;2022-10-16T06:09:55;4.47;;;3.50;;
10343;SDS011;5217;43.960;10.954;2022-10-16T06:12:25;5.27;;;3.60;;
10343;SDS011;5217;43.960;10.954;2022-10-16T06:14:54;3.88;;;3.53;;
10343;SDS011;5217;43.960;10.954;2022-10-16T06:17:23;4.40;;;3.70;;
10343;SDS011;5217;43.960;10.954;2022-10-16T06:19:52;4.63;;;4.18;;
10343;SDS011;5217;43.960;10.954;2022-10-16T06:22:20;5.88;;;3.80;;
10343;SDS011;5217;43.960;10.954;2022-10-16T06:24:48;7.72;;;3.95;;
10343;SDS011;5217;43.960;10.954;2022-10-16T06:27:17;7.37;;;4.03;;
10343;SDS011;5217;43.960;10.954;2022-10-16T06:29:46;7.40;;;4.50;;
10343;SDS011;5217;43.960;10.954;2022-10-16T06:32:15;7.13;;;4.57;;
10343;SDS011;5217;43.960;10.954;2022-10-16T06:34:43;7.33;;;4.77;;
10343;SDS011;5217;43.960;10.954;2022-10-16T06:37:11;5.27;;;4.00;;
10343;SDS011;5217;43.960;10.954;2022-10-16T06:39:40;4.78;;;3.92;;
10343;SDS011;5217;43.960;10.954;2022-10-16T06:42:08;5.60;;;4.13;;
10343;SDS011;5217;43.960;10.954;2022-10-16T06:44:37;7.40;;;4.27;;
10343;SDS011;5217;43.960;10.954;2022-10-16T06:47:07;5.07;;;4.20;;
10343;SDS011;5217;43.960;10.954;2022-10-16T06:49:35;6.10;;;4.72;;
10343;SDS011;5217;43.960;10.954;2022-10-16T06:52:03;7.53;;;5.00;;
10343;SDS011;5217;43.960;10.954;2022-10-16T06:54:32;5.72;;;4.60;;
10343;SDS011;5217;43.960;10.954;2022-10-16T06:57:07;5.93;;;4.55;;
10343;SDS011;5217;43.960;10.954;2022-10-16T06:59:36;6.95;;;4.47;;
10343;SDS011;5217;43.960;10.954;2022-10-16T07:02:05;5.25;;;4.40;;
10343;SDS011;5217;43.960;10.954;2022-10-16T07:04:36;5.80;;;4.30;;
10343;SDS011;5217;43.960;10.954;2022-10-16T07:07:04;5.35;;;4.30;;
10343;SDS011;5217;43.960;10.954;2022-10-16T07:09:34;6.72;;;4.13;;
10343;SDS011;5217;43.960;10.954;2022-10-16T07:12:03;5.72;;;4.75;;
10343;SDS011;5217;43.960;10.954;2022-10-16T07:14:32;10.13;;;5.60;;
10343;SDS011;5217;43.960;10.954;2022-10-16T07:17:00;7.40;;;5.20;;
10343;SDS011;5217;43.960;10.954;2022-10-16T07:19:31;7.50;;;6.22;;
10343;SDS011;5217;43.960;10.954;2022-10-16T07:22:00;11.27;;;7.43;;
10343;SDS011;5217;43.960;10.954;2022-10-16T07:24:29;12.70;;;9.05;;
10343;SDS011;5217;43.960;10.954;2022-10-16T07:26:57;10.38;;;9.25;;
10343;SDS011;5217;43.960;10.954;2022-10-16T07:29:26;9.13;;;8.30;;
10343;SDS011;5217;43.960;10.954;2022-10-16T07:31:54;10.15;;;9.10;;
10343;SDS011;5217;43.960;10.954;2022-10-16T07:34:22;11.05;;;9.25;;
10343;SDS011;5217;43.960;10.954;2022-10-16T07:36:53;10.55;;;9.60;;
10343;SDS011;5217;43.960;10.954;2022-10-16T07:39:22;11.90;;;10.68;;
10343;SDS011;5217;43.960;10.954;2022-10-16T07:41:50;12.20;;;11.02;;
10343;SDS011;5217;43.960;10.954;2022-10-16T07:44:19;13.75;;;12.35;;
10343;SDS011;5217;43.960;10.954;2022-10-16T07:46:47;14.55;;;13.05;;
10343;SDS011;5217;43.960;10.954;2022-10-16T07:49:15;12.20;;;11.18;;
10343;SDS011;5217;43.960;10.954;2022-10-16T07:51:44;11.90;;;10.60;;
10343;SDS011;5217;43.960;10.954;2022-10-16T07:54:14;10.27;;;9.38;;
10343;SDS011;5217;43.960;10.954;2022-10-16T07:56:42;10.23;;;9.32;;
10343;SDS011;5217;43.960;10.954;2022-10-16T07:59:11;9.27;;;8.40;;
10343;SDS011;5217;43.960;10.954;2022-10-16T08:01:39;9.20;;;8.20;;
10343;SDS011;5217;43.960;10.954;2022-10-16T08:04:08;8.18;;;7.47;;
10343;SDS011;5217;43.960;10.954;2022-10-16T08:06:38;9.10;;;7.38;;
10343;SDS011;5217;43.960;10.954;2022-10-16T08:09:07;8.80;;;7.97;;
10343;SDS011;5217;43.960;10.954;2022-10-16T08:11:38;8.60;;;7.70;;
10343;SDS011;5217;43.960;10.954;2022-10-16T08:14:06;7.63;;;6.85;;
10343;SDS011;5217;43.960;10.954;2022-10-16T08:16:34;7.30;;;6.28;;
10343;SDS011;5217;43.960;10.954;2022-10-16T08:19:03;6.63;;;5.90;;
10343;SDS011;5217;43.960;10.954;2022-10-16T08:21:31;7.70;;;6.30;;
10343;SDS011;5217;43.960;10.954;2022-10-16T08:23:59;8.70;;;6.57;;
10343;SDS011;5217;43.960;10.954;2022-10-16T08:26:28;7.05;;;6.28;;
10343;SDS011;5217;43.960;10.954;2022-10-16T08:28:58;6.97;;;6.28;;
10343;SDS011;5217;43.960;10.954;2022-10-16T08:31:26;9.00;;;6.68;;
10343;SDS011;5217;43.960;10.954;2022-10-16T08:33:54;9.20;;;5.82;;
10343;SDS011;5217;43.960;10.954;2022-10-16T08:36:23;7.00;;;5.57;;
10343;SDS011;5217;43.960;10.954;2022-10-16T08:38:51;10.25;;;6.40;;
10343;SDS011;5217;43.960;10.954;2022-10-16T08:41:23;11.25;;;8.15;;
10343;SDS011;5217;43.960;10.954;2022-10-16T08:47:22;9.90;;;7.88;;
10343;SDS011;5217;43.960;10.954;2022-10-16T08:49:55;9.50;;;7.82;;
10343;SDS011;5217;43.960;10.954;2022-10-16T08:52:25;10.50;;;7.72;;
10343;SDS011;5217;43.960;10.954;2022-10-16T08:54:57;9.23;;;7.82;;
10343;SDS011;5217;43.960;10.954;2022-10-16T08:57:26;11.38;;;7.53;;
10343;SDS011;5217;43.960;10.954;2022-10-16T08:59:55;9.40;;;6.57;;
10343;SDS011;5217;43.960;10.954;2022-10-16T09:02:31;10.18;;;7.60;;
10343;SDS011;5217;43.960;10.954;2022-10-16T09:05:04;10.02;;;7.32;;
10343;SDS011;5217;43.960;10.954;2022-10-16T09:07:54;12.73;;;8.60;;
10343;SDS011;5217;43.960;10.954;2022-10-16T09:10:38;11.48;;;7.90;;
10343;SDS011;5217;43.960;10.954;2022-10-16T09:13:16;9.60;;;7.38;;
10343;SDS011;5217;43.960;10.954;2022-10-16T09:15:52;8.68;;;6.80;;
10343;SDS011;5217;43.960;10.954;2022-10-16T09:21:55;7.65;;;6.93;;
10343;SDS011;5217;43.960;10.954;2022-10-16T09:24:25;9.80;;;7.25;;
10343;SDS011;5217;43.960;10.954;2022-10-16T09:26:54;8.88;;;6.85;;
10343;SDS011;5217;43.960;10.954;2022-10-16T09:29:23;10.00;;;7.30;;
10343;SDS011;5217;43.960;10.954;2022-10-16T09:31:52;9.35;;;7.18;;
10343;SDS011;5217;43.960;10.954;2022-10-16T09:34:24;8.82;;;7.18;;
10343;SDS011;5217;43.960;10.954;2022-10-16T09:37:00;8.50;;;6.50;;
10343;SDS011;5217;43.960;10.954;2022-10-16T09:39:41;6.75;;;5.97;;
10343;SDS011;5217;43.960;10.954;2022-10-16T09:42:14;6.90;;;5.90;;
10343;SDS011;5217;43.960;10.954;2022-10-16T09:44:47;8.30;;;5.78;;
10343;SDS011;5217;43.960;10.954;2022-10-16T09:47:18;9.20;;;5.10;;
10343;SDS011;5217;43.960;10.954;2022-10-16T09:49:52;9.85;;;5.10;;
10343;SDS011;5217;43.960;10.954;2022-10-16T09:52:23;5.32;;;4.80;;
10343;SDS011;5217;43.960;10.954;2022-10-16T09:54:52;6.80;;;4.78;;
10343;SDS011;5217;43.960;10.954;2022-10-16T09:57:22;6.93;;;4.30;;
10343;SDS011;5217;43.960;10.954;2022-10-16T09:59:52;5.00;;;3.95;;
10343;SDS011;5217;43.960;10.954;2022-10-16T10:02:23;6.00;;;4.15;;
10343;SDS011;5217;43.960;10.954;2022-10-16T10:04:57;6.10;;;4.65;;
10343;SDS011;5217;43.960;10.954;2022-10-16T10:07:28;5.63;;;4.32;;
10343;SDS011;5217;43.960;10.954;2022-10-16T10:10:01;5.65;;;3.97;;
10343;SDS011;5217;43.960;10.954;2022-10-16T10:12:31;4.30;;;3.70;;
10343;SDS011;5217;43.960;10.954;2022-10-16T10:15:04;5.07;;;3.85;;
10343;SDS011;5217;43.960;10.954;2022-10-16T10:17:45;6.60;;;4.47;;
10343;SDS011;5217;43.960;10.954;2022-10-16T10:20:22;5.32;;;4.15;;
10343;SDS011;5217;43.960;10.954;2022-10-16T10:22:53;7.05;;;4.00;;
10343;SDS011;5217;43.960;10.954;2022-10-16T10:25:32;5.13;;;3.38;;
10343;SDS011;5217;43.960;10.954;2022-10-16T10:28:32;6.35;;;3.70;;
10343;SDS011;5217;43.960;10.954;2022-10-16T10:31:14;5.13;;;3.38;;
10343;SDS011;5217;43.960;10.954;2022-10-16T10:33:51;5.40;;;3.70;;
10343;SDS011;5217;43.960;10.954;2022-10-16T10:40:08;5.10;;;3.38;;
10343;SDS011;5217;43.960;10.954;2022-10-16T10:42:52;6.82;;;3.78;;
10343;SDS011;5217;43.960;10.954;2022-10-16T10:45:26;5.18;;;3.72;;
10343;SDS011;5217;43.960;10.954;2022-10-16T10:48:00;6.90;;;3.42;;
10343;SDS011;5217;43.960;10.954;2022-10-16T10:50:39;7.30;;;3.47;;
10343;SDS011;5217;43.960;10.954;2022-10-16T10:53:18;4.70;;;3.40;;
10343;SDS011;5217;43.960;10.954;2022-10-16T10:55:54;5.55;;;3.30;;
10343;SDS011;5217;43.960;10.954;2022-10-16T10:58:41;4.50;;;3.10;;
10343;SDS011;5217;43.960;10.954;2022-10-16T11:01:18;4.63;;;3.17;;
10343;SDS011;5217;43.960;10.954;2022-10-16T11:04:00;4.95;;;3.60;;
10343;SDS011;5217;43.960;10.954;2022-10-16T11:06:43;6.20;;;3.15;;
10343;SDS011;5217;43.960;10.954;2022-10-16T11:09:15;4.20;;;3.00;;
10343;SDS011;5217;43.960;10.954;2022-10-16T11:11:51;7.82;;;3.50;;
10343;SDS011;5217;43.960;10.954;2022-10-16T11:14:26;4.80;;;3.10;;
10343;SDS011;5217;43.960;10.954;2022-10-16T11:17:01;5.32;;;3.42;;
10343;SDS011;5217;43.960;10.954;2022-10-16T11:19:35;5.75;;;3.25;;
10343;SDS011;5217;43.960;10.954;2022-10-16T11:22:11;6.38;;;3.35;;
10343;SDS011;5217;43.960;10.954;2022-10-16T11:24:45;4.43;;;3.30;;
10343;SDS011;5217;43.960;10.954;2022-10-16T11:27:22;3.97;;;2.95;;
10343;SDS011;5217;43.960;10.954;2022-10-16T11:29:56;9.88;;;3.50;;
10343;SDS011;5217;43.960;10.954;2022-10-16T11:32:28;7.35;;;3.15;;
10343;SDS011;5217;43.960;10.954;2022-10-16T11:35:02;3.95;;;2.85;;
10343;SDS011;5217;43.960;10.954;2022-10-16T11:37:41;6.18;;;2.88;;
10343;SDS011;5217;43.960;10.954;2022-10-16T11:40:19;3.60;;;2.47;;
10343;SDS011;5217;43.960;10.954;2022-10-16T11:42:56;4.10;;;2.42;;
10343;SDS011;5217;43.960;10.954;2022-10-16T11:45:33;4.07;;;2.40;;
10343;SDS011;5217;43.960;10.954;2022-10-16T11:48:08;4.78;;;2.80;;
10343;SDS011;5217;43.960;10.954;2022-10-16T11:50:47;3.75;;;2.80;;
10343;SDS011;5217;43.960;10.954;2022-10-16T11:53:23;3.58;;;2.90;;
10343;SDS011;5217;43.960;10.954;2022-10-16T11:56:02;5.30;;;2.90;;
10343;SDS011;5217;43.960;10.954;2022-10-16T11:58:35;4.38;;;2.83;;
10343;SDS011;5217;43.960;10.954;2022-10-16T12:01:14;5.50;;;3.03;;
10343;SDS011;5217;43.960;10.954;2022-10-16T12:03:48;3.97;;;2.60;;
10343;SDS011;5217;43.960;10.954;2022-10-16T12:06:30;3.38;;;2.50;;
10343;SDS011;5217;43.960;10.954;2022-10-16T12:09:02;3.72;;;2.60;;
10343;SDS011;5217;43.960;10.954;2022-10-16T12:11:57;3.03;;;2.10;;
10343;SDS011;5217;43.960;10.954;2022-10-16T12:14:42;4.72;;;2.70;;
10343;SDS011;5217;43.960;10.954;2022-10-16T12:17:55;4.95;;;1.70;;
10343;SDS011;5217;43.960;10.954;2022-10-16T12:20:26;4.32;;;1.80;;
10343;SDS011;5217;43.960;10.954;2022-10-16T12:22:59;4.00;;;1.92;;
10343;SDS011;5217;43.960;10.954;2022-10-16T12:25:30;3.47;;;2.45;;
10343;SDS011;5217;43.960;10.954;2022-10-16T12:28:02;2.53;;;2.33;;
10343;SDS011;5217;43.960;10.954;2022-10-16T12:30:35;3.40;;;2.58;;
10343;SDS011;5217;43.960;10.954;2022-10-16T12:33:05;3.70;;;2.63;;
10343;SDS011;5217;43.960;10.954;2022-10-16T12:35:44;3.08;;;2.70;;
10343;SDS011;5217;43.960;10.954;2022-10-16T12:38:15;3.65;;;2.60;;
10343;SDS011;5217;43.960;10.954;2022-10-16T12:40:53;4.20;;;2.80;;
10343;SDS011;5217;43.960;10.954;2022-10-16T12:43:36;3.85;;;2.60;;
10343;SDS011;5217;43.960;10.954;2022-10-16T12:49:53;5.10;;;2.90;;
10343;SDS011;5217;43.960;10.954;2022-10-16T12:52:25;2.58;;;2.30;;
10343;SDS011;5217;43.960;10.954;2022-10-16T12:54:56;4.55;;;2.50;;
10343;SDS011;5217;43.960;10.954;2022-10-16T12:57:34;3.53;;;2.88;;
10343;SDS011;5217;43.960;10.954;2022-10-16T13:00:18;4.03;;;2.63;;
10343;SDS011;5217;43.960;10.954;2022-10-16T13:06:08;3.75;;;2.72;;
10343;SDS011;5217;43.960;10.954;2022-10-16T13:08:46;4.07;;;2.70;;
10343;SDS011;5217;43.960;10.954;2022-10-16T13:11:27;2.95;;;2.60;;
10343;SDS011;5217;43.960;10.954;2022-10-16T13:14:18;4.82;;;2.65;;
10343;SDS011;5217;43.960;10.954;2022-10-16T13:17:02;3.25;;;2.38;;
10343;SDS011;5217;43.960;10.954;2022-10-16T13:19:38;7.10;;;2.90;;
10343;SDS011;5217;43.960;10.954;2022-10-16T13:22:19;4.15;;;2.80;;
10343;SDS011;5217;43.960;10.954;2022-10-16T13:24:59;2.88;;;2.67;;
10343;SDS011;5217;43.960;10.954;2022-10-16T13:27:42;3.03;;;2.63;;
10343;SDS011;5217;43.960;10.954;2022-10-16T13:30:16;3.28;;;2.75;;
10343;SDS011;5217;43.960;10.954;2022-10-16T13:32:58;3.85;;;2.78;;
10343;SDS011;5217;43.960;10.954;2022-10-16T13:35:30;3.97;;;3.05;;
10343;SDS011;5217;43.960;10.954;2022-10-16T13:38:13;4.05;;;3.13;;
10343;SDS011;5217;43.960;10.954;2022-10-16T13:40:48;5.05;;;3.13;;
10343;SDS011;5217;43.960;10.954;2022-10-16T13:43:18;3.78;;;3.03;;
10343;SDS011;5217;43.960;10.954;2022-10-16T13:45:57;4.90;;;3.20;;
10343;SDS011;5217;43.960;10.954;2022-10-16T13:48:28;4.45;;;3.10;;
10343;SDS011;5217;43.960;10.954;2022-10-16T13:50:58;4.47;;;3.00;;
10343;SDS011;5217;43.960;10.954;2022-10-16T13:53:31;3.28;;;2.63;;
10343;SDS011;5217;43.960;10.954;2022-10-16T13:56:02;4.38;;;3.20;;
10343;SDS011;5217;43.960;10.954;2022-10-16T13:58:33;4.07;;;2.67;;
10343;SDS011;5217;43.960;10.954;2022-10-16T14:01:02;5.45;;;2.65;;
10343;SDS011;5217;43.960;10.954;2022-10-16T14:03:34;2.85;;;2.60;;
10343;SDS011;5217;43.960;10.954;2022-10-16T14:06:03;2.80;;;2.40;;
10343;SDS011;5217;43.960;10.954;2022-10-16T14:08:42;5.10;;;2.90;;
10343;SDS011;5217;43.960;10.954;2022-10-16T14:11:13;3.90;;;2.95;;
10343;SDS011;5217;43.960;10.954;2022-10-16T14:13:50;3.72;;;2.83;;
10343;SDS011;5217;43.960;10.954;2022-10-16T14:16:20;3.85;;;3.25;;
10343;SDS011;5217;43.960;10.954;2022-10-16T14:18:55;3.42;;;2.78;;
10343;SDS011;5217;43.960;10.954;2022-10-16T14:21:26;2.90;;;2.70;;
10343;SDS011;5217;43.960;10.954;2022-10-16T14:23:56;3.20;;;2.90;;
10343;SDS011;5217;43.960;10.954;2022-10-16T14:26:25;5.30;;;2.63;;
10343;SDS011;5217;43.960;10.954;2022-10-16T14:29:01;3.40;;;2.80;;
10343;SDS011;5217;43.960;10.954;2022-10-16T14:31:38;3.85;;;2.97;;
10343;SDS011;5217;43.960;10.954;2022-10-16T14:34:22;3.72;;;3.15;;
10343;SDS011;5217;43.960;10.954;2022-10-16T14:36:57;3.42;;;3.13;;
10343;SDS011;5217;43.960;10.954;2022-10-16T14:39:30;3.10;;;2.80;;
10343;SDS011;5217;43.960;10.954;2022-10-16T14:41:58;3.65;;;2.83;;
10343;SDS011;5217;43.960;10.954;2022-10-16T14:44:28;4.00;;;3.03;;
10343;SDS011;5217;43.960;10.954;2022-10-16T14:47:06;3.08;;;2.78;;
10343;SDS011;5217;43.960;10.954;2022-10-16T14:49:37;3.25;;;2.90;;
10343;SDS011;5217;43.960;10.954;2022-10-16T14:52:08;3.63;;;2.80;;
10343;SDS011;5217;43.960;10.954;2022-10-16T14:54:40;3.50;;;2.88;;
10343;SDS011;5217;43.960;10.954;2022-10-16T14:57:15;3.42;;;2.80;;
10343;SDS011;5217;43.960;10.954;2022-10-16T14:59:44;4.30;;;3.20;;
10343;SDS011;5217;43.960;10.954;2022-10-16T15:02:16;3.78;;;3.05;;
10343;SDS011;5217;43.960;10.954;2022-10-16T15:04:50;4.13;;;3.10;;
10343;SDS011;5217;43.960;10.954;2022-10-16T15:07:19;3.85;;;2.92;;
10343;SDS011;5217;43.960;10.954;2022-10-16T15:09:48;3.63;;;2.90;;
10343;SDS011;5217;43.960;10.954;2022-10-16T15:12:17;6.20;;;3.08;;
10343;SDS011;5217;43.960;10.954;2022-10-16T15:14:46;3.20;;;2.90;;
10343;SDS011;5217;43.960;10.954;2022-10-16T15:17:14;4.22;;;2.88;;
10343;SDS011;5217;43.960;10.954;2022-10-16T15:19:47;4.28;;;3.17;;
10343;SDS011;5217;43.960;10.954;2022-10-16T15:22:15;3.90;;;2.85;;
10343;SDS011;5217;43.960;10.954;2022-10-16T15:24:44;4.18;;;3.08;;
10343;SDS011;5217;43.960;10.954;2022-10-16T15:27:14;4.25;;;3.15;;
10343;SDS011;5217;43.960;10.954;2022-10-16T15:29:43;5.93;;;3.60;;
10343;SDS011;5217;43.960;10.954;2022-10-16T15:32:11;5.68;;;3.10;;